Greenmount, Maryland
Current Conditions -  °F | °C
As of 3:45 PM on Tuesday 25 Nov 2014 (Local Time) from KDMW Reporting Station
Clear Clear  
Wind Chill: 52°   Ceiling: Unl
Heat Index: 52°   Visibility: 10mi
Dew Point: 28°   Wind: 5mph
Humidity: 41%   Direction: 270°W
Pressure: 30.03"   Gusts: NA
Location:  39.6206°N, 76.8429°W
Report Text: KDMW 252045Z AUTO 27004KT 10SM CLR 11/M02 A3003 RMK AO2
Loading
Personal Weather Stations






























Interactive Weather Map New forecast layout! Learn more

10-Day Weather Forecast

Advertisements
Track Severe Weather on mobile